createdAt,value
2019-03-25T00:05:53.637Z,1009.98
2019-03-25T00:11:53.622Z,1009.95
2019-03-25T00:17:53.612Z,1009.95
2019-03-25T00:23:53.641Z,1009.97
2019-03-25T00:29:53.701Z,1009.90
2019-03-25T00:35:53.620Z,1009.93
2019-03-25T00:41:53.654Z,1009.77
2019-03-25T00:47:53.691Z,1009.80
2019-03-25T00:53:53.711Z,1009.78
2019-03-25T00:59:53.643Z,1009.76
2019-03-25T01:05:53.640Z,1009.77
2019-03-25T01:11:53.696Z,1009.71
2019-03-25T01:17:53.663Z,1009.68
2019-03-25T01:23:53.688Z,1009.63
2019-03-25T01:29:53.720Z,1009.67
2019-03-25T01:35:53.779Z,1009.74
2019-03-25T01:41:53.726Z,1009.76
2019-03-25T01:47:53.752Z,1009.76
2019-03-25T01:53:53.831Z,1009.69
2019-03-25T01:59:53.745Z,1009.78
2019-03-25T02:05:53.892Z,1009.69
2019-03-25T02:11:53.755Z,1009.62
2019-03-25T02:17:53.864Z,1009.54
2019-03-25T02:23:53.772Z,1009.55
2019-03-25T02:29:53.813Z,1009.57
2019-03-25T02:35:53.880Z,1009.65
2019-03-25T02:41:53.823Z,1009.52
2019-03-25T02:47:53.873Z,1009.53
2019-03-25T02:53:53.772Z,1009.57
2019-03-25T02:59:53.784Z,1009.56
2019-03-25T03:05:53.770Z,1009.48
2019-03-25T03:11:53.838Z,1009.56
2019-03-25T03:17:53.801Z,1009.57
2019-03-25T03:23:53.889Z,1009.57
2019-03-25T03:29:53.844Z,1009.41
2019-03-25T03:35:53.804Z,1009.46
2019-03-25T03:41:53.812Z,1009.47
2019-03-25T03:47:53.822Z,1009.47
2019-03-25T03:53:53.910Z,1009.43
2019-03-25T03:59:53.774Z,1009.43
2019-03-25T04:05:53.730Z,1009.31
2019-03-25T04:11:53.791Z,1009.39
2019-03-25T04:17:53.725Z,1009.33
2019-03-25T04:23:53.762Z,1009.28
2019-03-25T04:29:53.789Z,1009.37
2019-03-25T04:35:53.765Z,1009.38
2019-03-25T04:41:53.857Z,1009.36
2019-03-25T04:47:53.788Z,1009.38
2019-03-25T04:53:53.756Z,1009.34
2019-03-25T04:59:53.750Z,1009.35
2019-03-25T05:05:53.772Z,1009.29
2019-03-25T05:11:53.771Z,1009.31
2019-03-25T05:17:53.797Z,1009.39
2019-03-25T05:23:53.840Z,1009.41
2019-03-25T05:29:53.754Z,1009.44
2019-03-25T05:35:53.779Z,1009.37
2019-03-25T05:41:53.787Z,1009.35
2019-03-25T05:47:53.802Z,1009.33
2019-03-25T05:53:53.756Z,1009.37
2019-03-25T06:01:44.333Z,1009.48
2019-03-25T06:07:43.686Z,1009.52
2019-03-25T06:13:43.711Z,1009.50
2019-03-25T06:19:43.694Z,1009.46
2019-03-25T06:25:43.681Z,1009.41
2019-03-25T06:31:43.830Z,1009.24
2019-03-25T06:48:35.969Z,1009.08
2019-03-25T06:54:35.964Z,1009.14
2019-03-25T07:00:35.987Z,1009.26
2019-03-25T07:06:35.962Z,1009.30
2019-03-25T07:12:36.029Z,1009.33
2019-03-25T07:18:36.009Z,1009.46
2019-03-25T07:24:36.010Z,1009.31
2019-03-25T07:30:36.047Z,1009.30
2019-03-25T07:36:36.027Z,1009.31
2019-03-25T07:42:36.085Z,1009.40
2019-03-25T07:48:36.024Z,1009.51
2019-03-25T07:54:36.394Z,1009.51
2019-03-25T08:00:36.081Z,1009.58
2019-03-25T08:06:36.092Z,1009.53
2019-03-25T08:41:54.891Z,1009.30
2019-03-25T08:51:56.525Z,1009.56
2019-03-25T08:57:56.563Z,1009.62
2019-03-25T09:03:56.551Z,1009.53
2019-03-25T09:09:56.554Z,1009.51
2019-03-25T09:15:56.558Z,1009.70
2019-03-25T09:21:56.587Z,1009.63
2019-03-25T09:27:56.586Z,1009.65
2019-03-25T09:33:56.658Z,1009.69
2019-03-25T09:39:57.700Z,1009.65
2019-03-25T09:45:56.659Z,1009.57
2019-03-25T09:51:56.616Z,1009.61
2019-03-25T09:57:56.594Z,1009.51
2019-03-25T10:03:56.577Z,1009.43
2019-03-25T10:09:56.646Z,1009.42
2019-03-25T10:15:56.587Z,1009.44
2019-03-25T10:22:19.730Z,1009.49
2019-03-25T10:28:19.693Z,1009.51
2019-03-25T10:34:19.664Z,1009.42
2019-03-25T10:40:19.661Z,1009.49
2019-03-25T10:46:19.708Z,1009.24
2019-03-25T10:52:19.877Z,1009.19
2019-03-25T10:58:19.694Z,1009.10
2019-03-25T11:04:19.800Z,1009.03
2019-03-25T11:10:19.697Z,1009.09
2019-03-25T11:16:19.978Z,1009.06
2019-03-25T11:22:19.679Z,1008.89
2019-03-25T11:28:20.040Z,1008.81
2019-03-25T11:34:19.682Z,1008.76
2019-03-25T11:40:19.808Z,1008.95
2019-03-25T11:46:19.822Z,1009.03
2019-03-25T11:52:19.711Z,1009.16
2019-03-25T11:58:19.774Z,1009.08
2019-03-25T12:04:19.705Z,1009.11
2019-03-25T12:10:19.839Z,1009.06
2019-03-25T12:16:19.793Z,1009.12
2019-03-25T12:22:19.781Z,1008.90
2019-03-25T12:28:20.830Z,1008.92
2019-03-25T12:34:19.834Z,1008.79
2019-03-25T12:40:19.720Z,1008.63
2019-03-25T12:46:19.764Z,1008.67
2019-03-25T12:52:19.774Z,1008.66
2019-03-25T12:58:19.770Z,1008.52
2019-03-25T13:04:19.779Z,1008.32
2019-03-25T13:10:19.797Z,1008.20
2019-03-25T13:16:19.790Z,1008.23
2019-03-25T13:22:19.821Z,1008.40
2019-03-25T13:28:19.827Z,1008.94
2019-03-25T13:34:19.800Z,1009.24
2019-03-25T13:40:19.812Z,1009.00
2019-03-25T13:46:19.784Z,1008.83
2019-03-25T13:52:19.784Z,1008.92
2019-03-25T13:58:19.826Z,1008.93
2019-03-25T14:04:19.796Z,1009.45
2019-03-25T14:10:19.825Z,1009.51
2019-03-25T14:16:19.832Z,1009.56
2019-03-25T14:22:19.849Z,1009.41
2019-03-25T14:28:19.951Z,1009.31
2019-03-25T14:34:19.939Z,1009.34
2019-03-25T14:40:19.819Z,1009.30
2019-03-25T14:46:19.865Z,1009.49
2019-03-25T14:52:19.999Z,1009.62
2019-03-25T14:58:19.831Z,1009.76
2019-03-25T15:04:19.838Z,1010.11
2019-03-25T15:10:19.828Z,1010.09
2019-03-25T15:16:19.844Z,1009.93
2019-03-25T15:22:19.831Z,1009.86
2019-03-25T15:28:19.849Z,1009.86
2019-03-25T15:34:19.894Z,1009.90
2019-03-25T15:40:19.924Z,1009.99
2019-03-25T15:46:19.844Z,1010.02
2019-03-25T15:52:19.890Z,1010.16
2019-03-25T15:58:25.885Z,1010.10
2019-03-25T16:04:19.849Z,1010.11
2019-03-25T16:10:19.870Z,1010.20
2019-03-25T16:16:19.974Z,1010.12
2019-03-25T16:22:19.964Z,1010.18
2019-03-25T16:28:19.896Z,1010.08
2019-03-25T16:34:19.848Z,1009.90
2019-03-25T16:40:19.920Z,1009.97
2019-03-25T16:46:19.932Z,1009.93
2019-03-25T16:52:20.941Z,1010.04
2019-03-25T16:58:19.883Z,1010.14
2019-03-25T17:04:20.252Z,1010.15
2019-03-25T17:10:19.965Z,1010.04
2019-03-25T17:16:19.918Z,1010.20
2019-03-25T17:22:19.890Z,1010.27
2019-03-25T17:28:19.977Z,1010.32
2019-03-25T17:34:19.973Z,1010.41
2019-03-25T17:40:19.910Z,1010.52
2019-03-25T17:46:19.937Z,1010.64
2019-03-25T17:52:19.925Z,1010.70
2019-03-25T17:58:19.895Z,1010.82
2019-03-25T18:04:19.921Z,1010.79
2019-03-25T18:10:19.946Z,1011.05
2019-03-25T18:16:22.046Z,1011.17
2019-03-25T18:22:20.012Z,1011.35
2019-03-25T18:28:19.929Z,1011.53
2019-03-25T18:34:19.975Z,1011.66
2019-03-25T18:40:20.118Z,1011.86
2019-03-25T18:46:19.931Z,1011.93
2019-03-25T18:52:19.988Z,1012.02
2019-03-25T18:58:19.953Z,1012.00
2019-03-25T19:04:20.041Z,1012.26
2019-03-25T19:10:19.957Z,1012.37
2019-03-25T19:16:19.987Z,1012.21
2019-03-25T19:22:19.966Z,1012.02
2019-03-25T19:28:20.020Z,1012.10
2019-03-25T19:34:20.029Z,1012.18
2019-03-25T19:40:20.085Z,1012.23
2019-03-25T19:46:20.006Z,1012.33
2019-03-25T19:52:20.072Z,1012.34
2019-03-25T19:58:19.982Z,1012.57
2019-03-25T20:04:19.967Z,1012.50
2019-03-25T20:10:20.031Z,1012.67
2019-03-25T20:16:20.057Z,1012.76
2019-03-25T20:22:20.046Z,1012.79
2019-03-25T20:28:20.059Z,1012.77
2019-03-25T20:34:23.137Z,1012.99
2019-03-25T20:40:20.377Z,1013.10
2019-03-25T20:46:20.069Z,1013.10
2019-03-25T20:52:20.044Z,1013.21
2019-03-25T20:58:20.363Z,1013.25
2019-03-25T21:04:20.024Z,1013.38
2019-03-25T21:10:20.072Z,1013.31
2019-03-25T21:16:20.038Z,1013.35
2019-03-25T21:22:20.010Z,1013.43
2019-03-25T21:28:20.006Z,1013.42
2019-03-25T21:34:20.043Z,1013.58
2019-03-25T21:40:20.055Z,1013.70
2019-03-25T21:46:20.081Z,1013.71
2019-03-25T21:52:20.088Z,1013.73
2019-03-25T21:58:22.131Z,1013.87
2019-03-25T22:04:20.009Z,1013.95
2019-03-25T22:10:20.029Z,1013.89
2019-03-25T22:16:20.049Z,1013.90
2019-03-25T22:22:21.127Z,1014.04
2019-03-25T22:28:20.031Z,1014.14
2019-03-25T22:34:20.393Z,1014.16
2019-03-25T22:40:20.037Z,1014.24
2019-03-25T22:46:20.421Z,1014.29
2019-03-25T22:52:20.048Z,1014.38
2019-03-25T22:58:20.040Z,1014.31
2019-03-25T23:04:20.077Z,1014.32
2019-03-25T23:10:20.091Z,1014.38
2019-03-25T23:16:20.208Z,1014.46
2019-03-25T23:22:20.115Z,1014.43
2019-03-25T23:28:20.090Z,1014.52
2019-03-25T23:34:20.037Z,1014.56
2019-03-25T23:40:20.092Z,1014.60
2019-03-25T23:46:20.124Z,1014.72
2019-03-25T23:52:20.074Z,1014.77
2019-03-25T23:58:20.066Z,1014.75
